sensor_id;sensor_type;location;lat;lon;timestamp;temperature;humidity
57030;DHT22;42920;45.306;20.448;2023-09-19T00:00:21;564.10;2329.60
57030;DHT22;42920;45.306;20.448;2023-09-19T00:02:57;564.00;2304.00
57030;DHT22;42920;45.306;20.448;2023-09-19T00:05:26;588.90;2329.60
57030;DHT22;42920;45.306;20.448;2023-09-19T00:07:54;588.80;2329.60
57030;DHT22;42920;45.306;20.448;2023-09-19T00:10:23;588.80;2329.60
57030;DHT22;42920;45.306;20.448;2023-09-19T00:12:51;588.80;2329.60
57030;DHT22;42920;45.306;20.448;2023-09-19T00:15:18;588.80;2304.00
57030;DHT22;42920;45.306;20.448;2023-09-19T00:17:44;588.80;2304.00
57030;DHT22;42920;45.306;20.448;2023-09-19T00:20:11;588.90;2304.00
57030;DHT22;42920;45.306;20.448;2023-09-19T00:22:41;588.90;2304.00
57030;DHT22;42920;45.306;20.448;2023-09-19T00:25:08;588.90;2304.00
57030;DHT22;42920;45.306;20.448;2023-09-19T00:27:35;588.90;2278.40
57030;DHT22;42920;45.306;20.448;2023-09-19T00:30:07;588.90;2278.40
57030;DHT22;42920;45.306;20.448;2023-09-19T00:32:40;588.90;2278.40
57030;DHT22;42920;45.306;20.448;2023-09-19T00:35:06;589.00;2278.40
57030;DHT22;42920;45.306;20.448;2023-09-19T00:37:35;588.90;2278.40
57030;DHT22;42920;45.306;20.448;2023-09-19T00:40:02;588.90;2278.40
57030;DHT22;42920;45.306;20.448;2023-09-19T00:42:28;588.90;2278.40
57030;DHT22;42920;45.306;20.448;2023-09-19T00:44:54;588.90;2252.80
57030;DHT22;42920;45.306;20.448;2023-09-19T00:47:20;588.90;2252.80
57030;DHT22;42920;45.306;20.448;2023-09-19T00:49:46;588.90;2252.80
57030;DHT22;42920;45.306;20.448;2023-09-19T00:52:14;588.90;2278.40
57030;DHT22;42920;45.306;20.448;2023-09-19T00:54:41;588.90;2278.40
57030;DHT22;42920;45.306;20.448;2023-09-19T00:57:07;588.90;2278.40
57030;DHT22;42920;45.306;20.448;2023-09-19T00:59:35;588.80;2278.40
57030;DHT22;42920;45.306;20.448;2023-09-19T01:02:02;588.80;2278.40
57030;DHT22;42920;45.306;20.448;2023-09-19T01:04:28;564.10;2278.40
57030;DHT22;42920;45.306;20.448;2023-09-19T01:06:54;564.10;2278.40
57030;DHT22;42920;45.306;20.448;2023-09-19T01:09:21;564.10;2304.00
57030;DHT22;42920;45.306;20.448;2023-09-19T01:11:49;564.10;2304.00
57030;DHT22;42920;45.306;20.448;2023-09-19T01:14:51;564.10;2304.00
57030;DHT22;42920;45.306;20.448;2023-09-19T01:17:25;564.10;2304.00
57030;DHT22;42920;45.306;20.448;2023-09-19T01:31:31;564.10;2304.00
57030;DHT22;42920;45.306;20.448;2023-09-19T01:34:02;564.10;2304.00
57030;DHT22;42920;45.306;20.448;2023-09-19T01:36:35;588.90;2304.00
57030;DHT22;42920;45.306;20.448;2023-09-19T01:39:04;564.00;2304.00
57030;DHT22;42920;45.306;20.448;2023-09-19T01:44:40;564.10;2304.00
57030;DHT22;42920;45.306;20.448;2023-09-19T01:47:23;564.10;2304.00
57030;DHT22;42920;45.306;20.448;2023-09-19T01:52:56;564.10;2304.00
57030;DHT22;42920;45.306;20.448;2023-09-19T01:55:25;564.10;2304.00
57030;DHT22;42920;45.306;20.448;2023-09-19T01:58:08;564.10;2304.00
57030;DHT22;42920;45.306;20.448;2023-09-19T02:00:38;564.10;2304.00
57030;DHT22;42920;45.306;20.448;2023-09-19T02:03:06;564.10;2304.00
57030;DHT22;42920;45.306;20.448;2023-09-19T02:05:32;564.10;2304.00
57030;DHT22;42920;45.306;20.448;2023-09-19T02:07:58;564.10;2304.00
57030;DHT22;42920;45.306;20.448;2023-09-19T02:10:24;564.10;2304.00
57030;DHT22;42920;45.306;20.448;2023-09-19T02:12:50;564.10;2278.40
57030;DHT22;42920;45.306;20.448;2023-09-19T02:15:16;564.10;2278.40
57030;DHT22;42920;45.306;20.448;2023-09-19T02:17:43;564.10;2278.40
57030;DHT22;42920;45.306;20.448;2023-09-19T02:20:10;564.10;2304.00
57030;DHT22;42920;45.306;20.448;2023-09-19T02:22:43;564.10;2278.40
57030;DHT22;42920;45.306;20.448;2023-09-19T02:25:10;564.10;2278.40
57030;DHT22;42920;45.306;20.448;2023-09-19T02:27:36;564.10;2278.40
57030;DHT22;42920;45.306;20.448;2023-09-19T02:30:03;564.10;2304.00
57030;DHT22;42920;45.306;20.448;2023-09-19T02:32:29;564.10;2329.60
57030;DHT22;42920;45.306;20.448;2023-09-19T02:34:57;564.00;2329.60
57030;DHT22;42920;45.306;20.448;2023-09-19T02:37:23;564.00;2304.00
57030;DHT22;42920;45.306;20.448;2023-09-19T02:39:49;563.90;2304.00
57030;DHT22;42920;45.306;20.448;2023-09-19T02:42:15;563.90;2329.60
57030;DHT22;42920;45.306;20.448;2023-09-19T02:44:40;563.90;2304.00
57030;DHT22;42920;45.306;20.448;2023-09-19T02:47:06;564.00;2304.00
57030;DHT22;42920;45.306;20.448;2023-09-19T02:49:32;564.00;2304.00
57030;DHT22;42920;45.306;20.448;2023-09-19T02:51:58;564.00;2304.00
57030;DHT22;42920;45.306;20.448;2023-09-19T02:54:24;564.00;2329.60
57030;DHT22;42920;45.306;20.448;2023-09-19T02:56:50;563.90;2329.60
57030;DHT22;42920;45.306;20.448;2023-09-19T02:59:16;563.80;2355.20
57030;DHT22;42920;45.306;20.448;2023-09-19T03:01:45;563.80;2355.20
57030;DHT22;42920;45.306;20.448;2023-09-19T03:04:14;563.80;2380.80
57030;DHT22;42920;45.306;20.448;2023-09-19T03:06:45;563.70;2380.80
57030;DHT22;42920;45.306;20.448;2023-09-19T03:09:11;563.70;2406.40
57030;DHT22;42920;45.306;20.448;2023-09-19T03:11:38;563.60;2432.00
57030;DHT22;42920;45.306;20.448;2023-09-19T03:14:05;563.50;2432.00
57030;DHT22;42920;45.306;20.448;2023-09-19T03:16:31;563.30;2432.00
57030;DHT22;42920;45.306;20.448;2023-09-19T03:18:57;563.20;2432.00
57030;DHT22;42920;45.306;20.448;2023-09-19T03:21:25;538.30;2406.40
57030;DHT22;42920;45.306;20.448;2023-09-19T03:23:51;538.20;2406.40
57030;DHT22;42920;45.306;20.448;2023-09-19T03:26:17;538.10;2406.40
57030;DHT22;42920;45.306;20.448;2023-09-19T03:28:43;538.00;2406.40
57030;DHT22;42920;45.306;20.448;2023-09-19T03:31:09;538.00;2406.40
57030;DHT22;42920;45.306;20.448;2023-09-19T03:33:36;538.10;2406.40
57030;DHT22;42920;45.306;20.448;2023-09-19T03:36:02;538.20;2406.40
57030;DHT22;42920;45.306;20.448;2023-09-19T03:38:31;538.20;2406.40
57030;DHT22;42920;45.306;20.448;2023-09-19T03:40:57;538.20;2406.40
57030;DHT22;42920;45.306;20.448;2023-09-19T03:43:23;538.30;2406.40
57030;DHT22;42920;45.306;20.448;2023-09-19T03:45:49;538.30;2406.40
57030;DHT22;42920;45.306;20.448;2023-09-19T03:48:16;538.30;2406.40
57030;DHT22;42920;45.306;20.448;2023-09-19T03:50:42;538.40;2406.40
57030;DHT22;42920;45.306;20.448;2023-09-19T03:53:09;538.40;2406.40
57030;DHT22;42920;45.306;20.448;2023-09-19T03:55:35;538.50;2406.40
57030;DHT22;42920;45.306;20.448;2023-09-19T03:58:01;538.50;2406.40
57030;DHT22;42920;45.306;20.448;2023-09-19T04:00:27;538.50;2406.40
57030;DHT22;42920;45.306;20.448;2023-09-19T04:02:55;538.50;2406.40
57030;DHT22;42920;45.306;20.448;2023-09-19T04:05:22;538.50;2406.40
57030;DHT22;42920;45.306;20.448;2023-09-19T04:07:48;563.20;2432.00
57030;DHT22;42920;45.306;20.448;2023-09-19T04:10:16;563.20;2432.00
57030;DHT22;42920;45.306;20.448;2023-09-19T04:12:51;563.20;2432.00
57030;DHT22;42920;45.306;20.448;2023-09-19T04:15:17;563.20;2432.00
57030;DHT22;42920;45.306;20.448;2023-09-19T04:17:43;563.20;2432.00
57030;DHT22;42920;45.306;20.448;2023-09-19T04:20:09;563.30;2432.00
57030;DHT22;42920;45.306;20.448;2023-09-19T04:22:37;563.30;2432.00
57030;DHT22;42920;45.306;20.448;2023-09-19T04:25:05;563.30;2432.00
57030;DHT22;42920;45.306;20.448;2023-09-19T04:27:32;563.30;2432.00
57030;DHT22;42920;45.306;20.448;2023-09-19T04:29:58;563.30;2432.00
57030;DHT22;42920;45.306;20.448;2023-09-19T04:32:33;563.30;2432.00
57030;DHT22;42920;45.306;20.448;2023-09-19T04:35:01;563.30;2432.00
57030;DHT22;42920;45.306;20.448;2023-09-19T04:37:32;563.30;2432.00
57030;DHT22;42920;45.306;20.448;2023-09-19T04:39:58;563.30;2432.00
57030;DHT22;42920;45.306;20.448;2023-09-19T04:42:23;563.30;2432.00
57030;DHT22;42920;45.306;20.448;2023-09-19T04:44:50;563.30;2432.00
57030;DHT22;42920;45.306;20.448;2023-09-19T04:47:19;563.40;2432.00
57030;DHT22;42920;45.306;20.448;2023-09-19T04:49:47;563.30;2432.00
57030;DHT22;42920;45.306;20.448;2023-09-19T04:52:13;563.30;2432.00
57030;DHT22;42920;45.306;20.448;2023-09-19T04:54:41;563.40;2432.00
57030;DHT22;42920;45.306;20.448;2023-09-19T04:57:07;563.50;2432.00
57030;DHT22;42920;45.306;20.448;2023-09-19T04:59:32;563.50;2432.00
57030;DHT22;42920;45.306;20.448;2023-09-19T05:01:58;563.50;2432.00
57030;DHT22;42920;45.306;20.448;2023-09-19T05:04:24;563.50;2432.00
57030;DHT22;42920;45.306;20.448;2023-09-19T05:06:50;563.50;2432.00
57030;DHT22;42920;45.306;20.448;2023-09-19T05:09:16;563.50;2432.00
57030;DHT22;42920;45.306;20.448;2023-09-19T05:11:45;563.40;2432.00
57030;DHT22;42920;45.306;20.448;2023-09-19T05:14:11;563.40;2432.00
57030;DHT22;42920;45.306;20.448;2023-09-19T05:16:37;563.40;2432.00
57030;DHT22;42920;45.306;20.448;2023-09-19T05:19:03;563.40;2432.00
57030;DHT22;42920;45.306;20.448;2023-09-19T05:21:30;563.40;2432.00
57030;DHT22;42920;45.306;20.448;2023-09-19T05:23:56;563.50;2432.00
57030;DHT22;42920;45.306;20.448;2023-09-19T05:26:22;563.40;2432.00
57030;DHT22;42920;45.306;20.448;2023-09-19T05:28:47;563.40;2432.00
57030;DHT22;42920;45.306;20.448;2023-09-19T05:31:13;563.50;2432.00
57030;DHT22;42920;45.306;20.448;2023-09-19T05:33:40;563.50;2432.00
57030;DHT22;42920;45.306;20.448;2023-09-19T05:36:06;563.50;2432.00
57030;DHT22;42920;45.306;20.448;2023-09-19T05:38:33;563.60;2432.00
57030;DHT22;42920;45.306;20.448;2023-09-19T05:40:58;563.70;2432.00
57030;DHT22;42920;45.306;20.448;2023-09-19T05:43:24;563.70;2432.00
57030;DHT22;42920;45.306;20.448;2023-09-19T05:45:50;563.80;2432.00
57030;DHT22;42920;45.306;20.448;2023-09-19T05:48:17;563.80;2406.40
57030;DHT22;42920;45.306;20.448;2023-09-19T05:50:43;563.80;2432.00
57030;DHT22;42920;45.306;20.448;2023-09-19T05:53:10;563.90;2406.40
57030;DHT22;42920;45.306;20.448;2023-09-19T05:55:40;563.90;2406.40
57030;DHT22;42920;45.306;20.448;2023-09-19T05:58:06;564.00;2406.40
57030;DHT22;42920;45.306;20.448;2023-09-19T06:00:32;564.00;2406.40
57030;DHT22;42920;45.306;20.448;2023-09-19T06:02:59;564.10;2380.80
57030;DHT22;42920;45.306;20.448;2023-09-19T06:05:28;564.10;2380.80
57030;DHT22;42920;45.306;20.448;2023-09-19T06:07:56;564.10;2380.80
57030;DHT22;42920;45.306;20.448;2023-09-19T06:10:26;588.80;2329.60
57030;DHT22;42920;45.306;20.448;2023-09-19T06:12:53;588.80;2329.60
57030;DHT22;42920;45.306;20.448;2023-09-19T06:15:20;588.90;2355.20
57030;DHT22;42920;45.306;20.448;2023-09-19T06:17:49;588.90;2329.60
57030;DHT22;42920;45.306;20.448;2023-09-19T06:20:15;589.00;2304.00
57030;DHT22;42920;45.306;20.448;2023-09-19T06:22:45;589.20;2304.00
57030;DHT22;42920;45.306;20.448;2023-09-19T06:25:12;589.30;2304.00
57030;DHT22;42920;45.306;20.448;2023-09-19T06:27:47;589.30;2278.40
57030;DHT22;42920;45.306;20.448;2023-09-19T06:30:14;589.40;2278.40
57030;DHT22;42920;45.306;20.448;2023-09-19T06:32:42;589.50;2252.80
57030;DHT22;42920;45.306;20.448;2023-09-19T06:35:13;589.70;2227.20
57030;DHT22;42920;45.306;20.448;2023-09-19T06:37:43;614.60;2176.00
57030;DHT22;42920;45.306;20.448;2023-09-19T06:40:13;614.80;2176.00
57030;DHT22;42920;45.306;20.448;2023-09-19T06:42:43;615.00;2150.40
57030;DHT22;42920;45.306;20.448;2023-09-19T06:45:11;615.00;2124.80
57030;DHT22;42920;45.306;20.448;2023-09-19T06:47:39;615.10;2124.80
57030;DHT22;42920;45.306;20.448;2023-09-19T06:50:05;615.30;2099.20
57030;DHT22;42920;45.306;20.448;2023-09-19T06:52:32;615.20;2073.60
57030;DHT22;42920;45.306;20.448;2023-09-19T06:54:58;615.10;2099.20
57030;DHT22;42920;45.306;20.448;2023-09-19T06:57:24;615.10;2099.20
57030;DHT22;42920;45.306;20.448;2023-09-19T06:59:50;615.30;2099.20
57030;DHT22;42920;45.306;20.448;2023-09-19T07:02:16;640.20;2073.60
57030;DHT22;42920;45.306;20.448;2023-09-19T07:04:42;640.60;2048.00
57030;DHT22;42920;45.306;20.448;2023-09-19T07:07:07;640.60;2048.00
57030;DHT22;42920;45.306;20.448;2023-09-19T07:09:39;640.50;2048.00
57030;DHT22;42920;45.306;20.448;2023-09-19T07:12:05;640.40;2048.00
57030;DHT22;42920;45.306;20.448;2023-09-19T07:14:31;640.20;2048.00
57030;DHT22;42920;45.306;20.448;2023-09-19T07:16:57;640.10;2048.00
57030;DHT22;42920;45.306;20.448;2023-09-19T07:19:25;640.20;2048.00
57030;DHT22;42920;45.306;20.448;2023-09-19T07:21:54;640.20;2073.60
57030;DHT22;42920;45.306;20.448;2023-09-19T07:24:19;640.40;2073.60
57030;DHT22;42920;45.306;20.448;2023-09-19T07:26:47;640.60;2048.00
57030;DHT22;42920;45.306;20.448;2023-09-19T07:29:14;665.60;2022.40
57030;DHT22;42920;45.306;20.448;2023-09-19T07:31:39;665.90;1996.80
57030;DHT22;42920;45.306;20.448;2023-09-19T07:34:05;665.90;1971.20
57030;DHT22;42920;45.306;20.448;2023-09-19T07:36:34;665.90;1971.20
57030;DHT22;42920;45.306;20.448;2023-09-19T07:39:00;665.90;1971.20
57030;DHT22;42920;45.306;20.448;2023-09-19T07:41:25;666.10;1971.20
57030;DHT22;42920;45.306;20.448;2023-09-19T07:43:51;666.10;1945.60
57030;DHT22;42920;45.306;20.448;2023-09-19T07:46:17;666.30;1945.60
57030;DHT22;42920;45.306;20.448;2023-09-19T07:48:44;666.50;1945.60
57030;DHT22;42920;45.306;20.448;2023-09-19T07:51:14;691.30;1894.40
57030;DHT22;42920;45.306;20.448;2023-09-19T07:53:41;691.30;1894.40
57030;DHT22;42920;45.306;20.448;2023-09-19T07:56:09;691.50;1868.80
57030;DHT22;42920;45.306;20.448;2023-09-19T07:58:35;691.60;1868.80
57030;DHT22;42920;45.306;20.448;2023-09-19T08:01:06;691.60;1868.80
57030;DHT22;42920;45.306;20.448;2023-09-19T08:03:33;691.70;1868.80
57030;DHT22;42920;45.306;20.448;2023-09-19T08:05:59;691.90;1843.20
57030;DHT22;42920;45.306;20.448;2023-09-19T08:08:26;716.80;1843.20
57030;DHT22;42920;45.306;20.448;2023-09-19T08:10:58;717.00;1843.20
57030;DHT22;42920;45.306;20.448;2023-09-19T08:13:25;717.00;1817.60
57030;DHT22;42920;45.306;20.448;2023-09-19T08:15:51;717.30;1817.60
57030;DHT22;42920;45.306;20.448;2023-09-19T08:18:19;717.50;1792.00
57030;DHT22;42920;45.306;20.448;2023-09-19T08:20:53;717.50;1792.00
57030;DHT22;42920;45.306;20.448;2023-09-19T08:23:19;717.70;1740.80
57030;DHT22;42920;45.306;20.448;2023-09-19T08:25:47;717.70;1766.40
57030;DHT22;42920;45.306;20.448;2023-09-19T08:33:10;742.60;1766.40
57030;DHT22;42920;45.306;20.448;2023-09-19T08:35:36;742.50;1792.00
57030;DHT22;42920;45.306;20.448;2023-09-19T08:38:03;742.40;1792.00
57030;DHT22;42920;45.306;20.448;2023-09-19T08:40:36;717.30;1766.40
57030;DHT22;42920;45.306;20.448;2023-09-19T08:43:04;717.10;1766.40
57030;DHT22;42920;45.306;20.448;2023-09-19T08:45:30;717.10;1817.60
57030;DHT22;42920;45.306;20.448;2023-09-19T08:48:27;716.90;1817.60
57030;DHT22;42920;45.306;20.448;2023-09-19T08:54:07;717.10;1792.00
57030;DHT22;42920;45.306;20.448;2023-09-19T08:56:33;717.50;1792.00
57030;DHT22;42920;45.306;20.448;2023-09-19T08:59:06;742.40;1766.40
57030;DHT22;42920;45.306;20.448;2023-09-19T09:01:35;742.50;1740.80
57030;DHT22;42920;45.306;20.448;2023-09-19T09:04:02;742.70;1740.80
57030;DHT22;42920;45.306;20.448;2023-09-19T09:06:29;742.70;1740.80
57030;DHT22;42920;45.306;20.448;2023-09-19T09:08:55;742.50;1740.80
57030;DHT22;42920;45.306;20.448;2023-09-19T09:11:21;742.40;1766.40
57030;DHT22;42920;45.306;20.448;2023-09-19T09:13:48;742.40;1766.40
57030;DHT22;42920;45.306;20.448;2023-09-19T09:16:14;742.70;1766.40
57030;DHT22;42920;45.306;20.448;2023-09-19T09:18:45;743.00;1740.80
57030;DHT22;42920;45.306;20.448;2023-09-19T09:21:11;743.10;1715.20
57030;DHT22;42920;45.306;20.448;2023-09-19T09:23:40;768.30;1715.20
57030;DHT22;42920;45.306;20.448;2023-09-19T09:26:05;768.30;1689.60
57030;DHT22;42920;45.306;20.448;2023-09-19T09:28:34;768.40;1715.20
57030;DHT22;42920;45.306;20.448;2023-09-19T09:31:01;768.20;1689.60
57030;DHT22;42920;45.306;20.448;2023-09-19T09:33:38;743.30;1715.20
57030;DHT22;42920;45.306;20.448;2023-09-19T09:36:05;743.20;1740.80
57030;DHT22;42920;45.306;20.448;2023-09-19T09:38:47;768.20;1715.20
57030;DHT22;42920;45.306;20.448;2023-09-19T09:44:13;768.70;1664.00
57030;DHT22;42920;45.306;20.448;2023-09-19T09:46:47;793.60;1689.60
57030;DHT22;42920;45.306;20.448;2023-09-19T09:57:24;794.20;1612.80
57030;DHT22;42920;45.306;20.448;2023-09-19T09:59:55;794.50;1587.20
57030;DHT22;42920;45.306;20.448;2023-09-19T10:05:22;794.50;1561.60
57030;DHT22;42920;45.306;20.448;2023-09-19T10:07:50;819.30;1561.60
57030;DHT22;42920;45.306;20.448;2023-09-19T10:10:38;819.30;1561.60
57030;DHT22;42920;45.306;20.448;2023-09-19T10:13:08;819.30;1587.20
57030;DHT22;42920;45.306;20.448;2023-09-19T10:15:38;819.60;1561.60
57030;DHT22;42920;45.306;20.448;2023-09-19T10:18:06;819.90;1510.40
57030;DHT22;42920;45.306;20.448;2023-09-19T10:20:36;819.80;1561.60
57030;DHT22;42920;45.306;20.448;2023-09-19T10:23:09;819.80;1536.00
57030;DHT22;42920;45.306;20.448;2023-09-19T10:25:42;819.80;1536.00
57030;DHT22;42920;45.306;20.448;2023-09-19T10:28:12;819.60;1536.00
57030;DHT22;42920;45.306;20.448;2023-09-19T10:30:42;819.80;1536.00
57030;DHT22;42920;45.306;20.448;2023-09-19T10:33:14;819.70;1536.00
57030;DHT22;42920;45.306;20.448;2023-09-19T10:35:44;819.80;1510.40
57030;DHT22;42920;45.306;20.448;2023-09-19T10:38:11;844.90;1510.40
57030;DHT22;42920;45.306;20.448;2023-09-19T10:40:38;844.90;1510.40
57030;DHT22;42920;45.306;20.448;2023-09-19T10:43:12;844.90;1510.40
57030;DHT22;42920;45.306;20.448;2023-09-19T10:45:39;820.10;1510.40
57030;DHT22;42920;45.306;20.448;2023-09-19T10:48:06;844.90;1484.80
57030;DHT22;42920;45.306;20.448;2023-09-19T10:53:57;819.80;1510.40
57030;DHT22;42920;45.306;20.448;2023-09-19T10:56:36;819.70;1536.00
57030;DHT22;42920;45.306;20.448;2023-09-19T10:59:13;819.60;1510.40
57030;DHT22;42920;45.306;20.448;2023-09-19T11:01:47;819.30;1561.60
57030;DHT22;42920;45.306;20.448;2023-09-19T11:07:02;794.00;1638.40
57030;DHT22;42920;45.306;20.448;2023-09-19T11:09:54;793.70;1664.00
57030;DHT22;42920;45.306;20.448;2023-09-19T11:14:55;768.90;1689.60
57030;DHT22;42920;45.306;20.448;2023-09-19T11:30:45;819.30;1612.80
57030;DHT22;42920;45.306;20.448;2023-09-19T11:33:22;819.20;1612.80
57030;DHT22;42920;45.306;20.448;2023-09-19T11:36:16;794.20;1612.80
57030;DHT22;42920;45.306;20.448;2023-09-19T11:43:47;794.50;1612.80
57030;DHT22;42920;45.306;20.448;2023-09-19T11:46:13;794.20;1638.40
57030;DHT22;42920;45.306;20.448;2023-09-19T11:48:43;794.20;1638.40
57030;DHT22;42920;45.306;20.448;2023-09-19T11:51:12;794.10;1638.40
57030;DHT22;42920;45.306;20.448;2023-09-19T11:53:46;794.20;1638.40
57030;DHT22;42920;45.306;20.448;2023-09-19T11:56:16;794.10;1638.40
57030;DHT22;42920;45.306;20.448;2023-09-19T11:58:46;794.10;1638.40
57030;DHT22;42920;45.306;20.448;2023-09-19T12:01:25;794.00;1689.60
57030;DHT22;42920;45.306;20.448;2023-09-19T12:03:56;793.70;1740.80
57030;DHT22;42920;45.306;20.448;2023-09-19T12:06:24;793.60;1792.00
57030;DHT22;42920;45.306;20.448;2023-09-19T12:08:50;768.90;1792.00
57030;DHT22;42920;45.306;20.448;2023-09-19T12:11:19;793.60;1817.60
57030;DHT22;42920;45.306;20.448;2023-09-19T12:13:47;793.70;1792.00
57030;DHT22;42920;45.306;20.448;2023-09-19T12:16:21;794.20;1792.00
57030;DHT22;42920;45.306;20.448;2023-09-19T12:18:48;819.20;1766.40
57030;DHT22;42920;45.306;20.448;2023-09-19T12:21:28;819.50;1740.80
57030;DHT22;42920;45.306;20.448;2023-09-19T12:26:30;819.50;1689.60
57030;DHT22;42920;45.306;20.448;2023-09-19T12:29:03;819.60;1715.20
57030;DHT22;42920;45.306;20.448;2023-09-19T12:31:30;819.60;1715.20
57030;DHT22;42920;45.306;20.448;2023-09-19T12:34:01;819.60;1689.60
57030;DHT22;42920;45.306;20.448;2023-09-19T12:36:27;819.90;1664.00
57030;DHT22;42920;45.306;20.448;2023-09-19T12:38:56;819.50;1689.60
57030;DHT22;42920;45.306;20.448;2023-09-19T12:41:25;819.60;1689.60
57030;DHT22;42920;45.306;20.448;2023-09-19T12:43:54;819.60;1689.60
57030;DHT22;42920;45.306;20.448;2023-09-19T12:46:21;819.30;1715.20
57030;DHT22;42920;45.306;20.448;2023-09-19T12:49:15;794.50;1715.20
57030;DHT22;42920;45.306;20.448;2023-09-19T12:51:42;819.30;1715.20
57030;DHT22;42920;45.306;20.448;2023-09-19T12:54:09;819.50;1689.60
57030;DHT22;42920;45.306;20.448;2023-09-19T12:56:43;819.60;1689.60
57030;DHT22;42920;45.306;20.448;2023-09-19T12:59:15;819.30;1689.60
57030;DHT22;42920;45.306;20.448;2023-09-19T13:01:42;819.30;1689.60
57030;DHT22;42920;45.306;20.448;2023-09-19T13:04:17;819.30;1715.20
57030;DHT22;42920;45.306;20.448;2023-09-19T13:06:52;819.60;1664.00
57030;DHT22;42920;45.306;20.448;2023-09-19T13:09:19;819.60;1689.60
57030;DHT22;42920;45.306;20.448;2023-09-19T13:11:46;819.80;1638.40
57030;DHT22;42920;45.306;20.448;2023-09-19T13:14:29;819.60;1689.60
57030;DHT22;42920;45.306;20.448;2023-09-19T13:17:01;819.30;1689.60
57030;DHT22;42920;45.306;20.448;2023-09-19T13:19:39;819.30;1664.00
57030;DHT22;42920;45.306;20.448;2023-09-19T13:22:41;819.50;1664.00
57030;DHT22;42920;45.306;20.448;2023-09-19T13:25:18;819.50;1689.60
57030;DHT22;42920;45.306;20.448;2023-09-19T13:27:55;819.30;1689.60
57030;DHT22;42920;45.306;20.448;2023-09-19T13:30:28;794.30;1715.20
57030;DHT22;42920;45.306;20.448;2023-09-19T13:33:10;794.00;1740.80
57030;DHT22;42920;45.306;20.448;2023-09-19T13:35:37;793.60;1740.80
57030;DHT22;42920;45.306;20.448;2023-09-19T13:38:05;793.70;1766.40
57030;DHT22;42920;45.306;20.448;2023-09-19T13:40:34;794.00;1740.80
57030;DHT22;42920;45.306;20.448;2023-09-19T13:43:01;794.10;1715.20
57030;DHT22;42920;45.306;20.448;2023-09-19T13:45:26;794.20;1689.60
57030;DHT22;42920;45.306;20.448;2023-09-19T13:47:56;794.00;1715.20
57030;DHT22;42920;45.306;20.448;2023-09-19T13:50:21;793.70;1715.20
57030;DHT22;42920;45.306;20.448;2023-09-19T13:52:50;793.70;1715.20
57030;DHT22;42920;45.306;20.448;2023-09-19T13:55:19;794.00;1715.20
57030;DHT22;42920;45.306;20.448;2023-09-19T13:57:48;794.20;1689.60
57030;DHT22;42920;45.306;20.448;2023-09-19T14:00:20;794.20;1689.60
57030;DHT22;42920;45.306;20.448;2023-09-19T14:02:46;794.20;1715.20
57030;DHT22;42920;45.306;20.448;2023-09-19T14:05:14;794.30;1664.00
57030;DHT22;42920;45.306;20.448;2023-09-19T14:07:42;794.30;1664.00
57030;DHT22;42920;45.306;20.448;2023-09-19T14:10:10;794.00;1689.60
57030;DHT22;42920;45.306;20.448;2023-09-19T14:12:37;793.80;1689.60
57030;DHT22;42920;45.306;20.448;2023-09-19T14:15:04;793.70;1689.60
57030;DHT22;42920;45.306;20.448;2023-09-19T14:17:30;793.70;1715.20
57030;DHT22;42920;45.306;20.448;2023-09-19T14:19:55;768.80;1689.60
57030;DHT22;42920;45.306;20.448;2023-09-19T14:22:21;768.60;1715.20
57030;DHT22;42920;45.306;20.448;2023-09-19T14:24:47;768.40;1689.60
57030;DHT22;42920;45.306;20.448;2023-09-19T14:27:13;768.20;1715.20
57030;DHT22;42920;45.306;20.448;2023-09-19T14:29:39;768.20;1715.20
57030;DHT22;42920;45.306;20.448;2023-09-19T14:32:05;768.40;1689.60
57030;DHT22;42920;45.306;20.448;2023-09-19T14:34:31;768.60;1715.20
57030;DHT22;42920;45.306;20.448;2023-09-19T14:36:57;768.60;1664.00
57030;DHT22;42920;45.306;20.448;2023-09-19T14:39:22;768.50;1715.20
57030;DHT22;42920;45.306;20.448;2023-09-19T14:41:49;768.50;1715.20
57030;DHT22;42920;45.306;20.448;2023-09-19T14:44:14;768.50;1689.60
57030;DHT22;42920;45.306;20.448;2023-09-19T14:46:42;768.50;1689.60
57030;DHT22;42920;45.306;20.448;2023-09-19T14:49:09;768.40;1689.60
57030;DHT22;42920;45.306;20.448;2023-09-19T14:51:37;768.30;1689.60
57030;DHT22;42920;45.306;20.448;2023-09-19T14:54:03;768.30;1664.00
57030;DHT22;42920;45.306;20.448;2023-09-19T14:56:29;768.20;1689.60
57030;DHT22;42920;45.306;20.448;2023-09-19T14:58:56;768.30;1664.00
57030;DHT22;42920;45.306;20.448;2023-09-19T15:01:22;768.30;1664.00
57030;DHT22;42920;45.306;20.448;2023-09-19T15:03:48;768.30;1664.00
57030;DHT22;42920;45.306;20.448;2023-09-19T15:06:15;768.20;1664.00
57030;DHT22;42920;45.306;20.448;2023-09-19T15:08:45;768.20;1664.00
57030;DHT22;42920;45.306;20.448;2023-09-19T15:11:16;768.20;1664.00
57030;DHT22;42920;45.306;20.448;2023-09-19T15:13:44;768.20;1664.00
57030;DHT22;42920;45.306;20.448;2023-09-19T15:16:10;768.20;1638.40
57030;DHT22;42920;45.306;20.448;2023-09-19T15:18:41;768.10;1638.40
57030;DHT22;42920;45.306;20.448;2023-09-19T15:21:08;768.30;1638.40
57030;DHT22;42920;45.306;20.448;2023-09-19T15:23:35;768.10;1638.40
57030;DHT22;42920;45.306;20.448;2023-09-19T15:26:05;768.00;1612.80
57030;DHT22;42920;45.306;20.448;2023-09-19T15:28:32;743.30;1638.40
57030;DHT22;42920;45.306;20.448;2023-09-19T15:33:25;743.10;1689.60
57030;DHT22;42920;45.306;20.448;2023-09-19T15:36:06;743.00;1664.00
57030;DHT22;42920;45.306;20.448;2023-09-19T15:41:19;742.60;1689.60
57030;DHT22;42920;45.306;20.448;2023-09-19T15:43:45;742.60;1689.60
57030;DHT22;42920;45.306;20.448;2023-09-19T15:46:11;742.50;1689.60
57030;DHT22;42920;45.306;20.448;2023-09-19T15:48:37;742.40;1689.60
57030;DHT22;42920;45.306;20.448;2023-09-19T15:51:03;742.40;1715.20
57030;DHT22;42920;45.306;20.448;2023-09-19T15:53:48;717.60;1715.20
57030;DHT22;42920;45.306;20.448;2023-09-19T15:56:15;717.60;1715.20
57030;DHT22;42920;45.306;20.448;2023-09-19T15:58:44;717.50;1715.20